Dighton, MA

1:40 PM EDT on September 16, 2014 (GMT -0400)
Taunton Municipal | Change Station
CLOSE
Current Station
Airport
Location: Taunton,
Elevation: 43 ft
Nearby Weather Stations

Elev 43 ft 41.88 °N, 71.02 °W | Updated 1 hour ago

Overcast
Overcast
67 °F
Feels Like 67 °F
N
4
Wind Variable Wind from WSW

Today
High -- | Low -- °F
--% Chance of Precip.
Yesterday
High -- | Low -- °F
Precip. -- in
6:25 AM 6:52 PM
Last Quarter, 44% visible
Pressure 29.99 in
Visibility 10.0 miles
Clouds Scattered Clouds 4000 ft
Overcast 6000 ft
Dew Point 51 °F
Humidity 57%
Rainfall 0.00 in
Snow Depth Not available.
UV 2 out of 12
Pollen 2.70 out of 12
Ozone Good
PM2.5 Good
Flu Activity Not available.
METAR KTAN 161552Z AUTO 24003KT 10SM SCT040 OVC060 19/11 A2999 RMK AO2 SLP156 T01940106

More Conditions Fewer Conditions

Pressure 29.99 in
Visibility 10.0 miles
Clouds Scattered Clouds 4000 ft
Overcast 6000 ft
Dew Point 51 °F
Humidity 57%
Rainfall 0.00 in
Snow Depth Not available.
UV 2 out of 12
Pollen 2.70 out of 12
Ozone Good
PM2.5 Good
Flu Activity Not available.
METAR KTAN 161552Z AUTO 24003KT 10SM SCT040 OVC060 19/11 A2999 RMK AO2 SLP156 T01940106

More Conditions Fewer Conditions

10-Day Weather Forecast

Almanac

Astronomy

Sep. 16, 2014 Rise Set
Actual Time 6:25 AM EDT 6:52 PM EDT
Civil Twilight 5:57 AM EDT 7:20 PM EDT
Nautical Twilight 5:24 AM EDT 7:53 PM EDT
Astronomical Twilight 4:51 AM EDT 8:26 PM EDT
Moon No Moon Rise 2:17 PM EDT
Length of Visible Light 13h 22m
Length of Day
12h 26m
Tomorrow will be 2m 46s shorter.
Last Quarter, 44% of the Moon is Illuminated
Today
Last Quarter
Sep 24
New
Oct 1
First Quarter
Oct 8
Full
Oct 15
Last Quarter

Today's Extremes

State Highs State Lows

Community

WunderPhotos

Upload Photos

1,753,843 photos uploaded!

Nearby

Air Quality

  Air Quality AQ Index Pollutant
Yesterday Good
OZONE
Yesterday Good
PM2.5
Current Good
OZONE
Current Good
PM2.5
Tuesday Good
PM2.5
Tuesday Good
OZONE

Snow Depth

Station Depth Elevation
No new snow has been reported.

Earthquake Activity

City Distance Mag. Time & Date
No recent earthquake activity has been reported nearby.
Minimum magnitude displayed is 2.5.

Coastal Water Temperatures

Place Temperature
Newport, RI 68.0 °F
Quonset Point, RI 69.1 °F
Conimicut Light, RI 69.1 °F

Nearby Weather Stations